ANA467 RJTT-ROAH
Flight info
| Callsign | ANA467 |
|---|---|
| Flight time | 2h 16m |
| Altitude | 33999 |
| Route | LAXAS4 LAXAS Y56 TOHME Y54 KOHWA Y12 AYANO Y128 LAXEL Y52 |
| Aircraft | B738/L-VGDW/C |
Departure
| Time | 2026-05-07 04:10 |
|---|---|
| Airport | Tokyo Haneda International Airport (RJTT) |
Arrival
| Time | 2026-05-07 06:26 |
|---|---|
| Airport | Naha International Airport (ROAH) |
| Time | Latitude | Longitude | Altitude | Speed | Heading |
|---|---|---|---|---|---|
| 2026-05-07 03:57 | 35.55107 | 139.78999 | 23 ft | 0 kts | 240° |
| 2026-05-07 03:59 | 35.55108 | 139.79002 | 23 ft | 2 kts | 240° |
| 2026-05-07 03:59 | 35.55117 | 139.79021 | 23 ft | 3 kts | 240° |
| 2026-05-07 04:00 | 35.55127 | 139.79041 | 23 ft | 3 kts | 246° |
| 2026-05-07 04:00 | 35.55132 | 139.79063 | 26 ft | 3 kts | 279° |
| 2026-05-07 04:00 | 35.55125 | 139.79084 | 27 ft | 3 kts | 314° |
| 2026-05-07 04:00 | 35.55112 | 139.79098 | 25 ft | 1 kts | 329° |
| 2026-05-07 04:01 | 35.55110 | 139.79099 | 24 ft | 0 kts | 330° |
| 2026-05-07 04:03 | 35.55129 | 139.79085 | 27 ft | 7 kts | 329° |
| 2026-05-07 04:03 | 35.55189 | 139.79043 | 24 ft | 12 kts | 329° |
| 2026-05-07 04:03 | 35.55264 | 139.78988 | 23 ft | 12 kts | 329° |
| 2026-05-07 04:03 | 35.55336 | 139.78937 | 23 ft | 12 kts | 336° |
| 2026-05-07 04:04 | 35.55412 | 139.78954 | 24 ft | 12 kts | 48° |
| 2026-05-07 04:04 | 35.55458 | 139.79032 | 23 ft | 11 kts | 34° |
| 2026-05-07 04:04 | 35.55531 | 139.79024 | 23 ft | 11 kts | 332° |
| 2026-05-07 04:04 | 35.55598 | 139.78977 | 25 ft | 12 kts | 330° |
| 2026-05-07 04:05 | 35.55685 | 139.78916 | 25 ft | 16 kts | 330° |
| 2026-05-07 04:05 | 35.55788 | 139.78843 | 24 ft | 17 kts | 330° |
| 2026-05-07 04:05 | 35.55889 | 139.78770 | 24 ft | 17 kts | 329° |
| 2026-05-07 04:05 | 35.55997 | 139.78690 | 22 ft | 19 kts | 329° |
| 2026-05-07 04:06 | 35.56113 | 139.78608 | 22 ft | 19 kts | 331° |
| 2026-05-07 04:06 | 35.56225 | 139.78530 | 22 ft | 18 kts | 330° |
| 2026-05-07 04:06 | 35.56301 | 139.78477 | 22 ft | 10 kts | 330° |
| 2026-05-07 04:06 | 35.56367 | 139.78453 | 22 ft | 10 kts | 25° |
| 2026-05-07 04:07 | 35.56408 | 139.78521 | 24 ft | 10 kts | 59° |
| 2026-05-07 04:07 | 35.56438 | 139.78585 | 22 ft | 6 kts | 60° |
| 2026-05-07 04:07 | 35.56444 | 139.78598 | 22 ft | 0 kts | 60° |
| 2026-05-07 04:08 | 35.56455 | 139.78621 | 23 ft | 5 kts | 60° |
| 2026-05-07 04:08 | 35.56482 | 139.78679 | 23 ft | 9 kts | 60° |
| 2026-05-07 04:08 | 35.56478 | 139.78736 | 23 ft | 7 kts | 143° |
| 2026-05-07 04:09 | 35.56436 | 139.78767 | 24 ft | 7 kts | 149° |
| 2026-05-07 04:09 | 35.56268 | 139.78884 | 24 ft | 62 kts | 151° |
| 2026-05-07 04:09 | 35.55671 | 139.79304 | 23 ft | 133 kts | 150° |
| 2026-05-07 04:09 | 35.54732 | 139.80006 | 245 ft | 173 kts | 151° |
| 2026-05-07 04:10 | 35.53643 | 139.80791 | 950 ft | 187 kts | 153° |
| 2026-05-07 04:10 | 35.52445 | 139.81594 | 1532 ft | 210 kts | 152° |
| 2026-05-07 04:10 | 35.51105 | 139.82534 | 1904 ft | 227 kts | 152° |
| 2026-05-07 04:10 | 35.49727 | 139.83511 | 2446 ft | 232 kts | 152° |
| 2026-05-07 04:11 | 35.48331 | 139.84501 | 2981 ft | 235 kts | 153° |
| 2026-05-07 04:11 | 35.46887 | 139.85524 | 3527 ft | 238 kts | 153° |
| 2026-05-07 04:11 | 35.45377 | 139.86421 | 3776 ft | 252 kts | 170° |
| 2026-05-07 04:11 | 35.43619 | 139.86285 | 4339 ft | 254 kts | 204° |
| 2026-05-07 04:12 | 35.42128 | 139.85208 | 5093 ft | 253 kts | 218° |
| 2026-05-07 04:12 | 35.40716 | 139.83853 | 5839 ft | 255 kts | 220° |
| 2026-05-07 04:12 | 35.39354 | 139.82492 | 6566 ft | 257 kts | 220° |
| 2026-05-07 04:12 | 35.37956 | 139.81105 | 7244 ft | 260 kts | 220° |
| 2026-05-07 04:13 | 35.36536 | 139.79714 | 7938 ft | 262 kts | 219° |
| 2026-05-07 04:13 | 35.35103 | 139.78325 | 8645 ft | 264 kts | 219° |
| 2026-05-07 04:13 | 35.33654 | 139.76930 | 9328 ft | 267 kts | 219° |
| 2026-05-07 04:13 | 35.32188 | 139.75522 | 9975 ft | 269 kts | 219° |
| 2026-05-07 04:14 | 35.30693 | 139.74071 | 10322 ft | 283 kts | 220° |
| 2026-05-07 04:14 | 35.29134 | 139.72462 | 10460 ft | 303 kts | 221° |
| 2026-05-07 04:14 | 35.27488 | 139.70727 | 10620 ft | 321 kts | 221° |
| 2026-05-07 04:14 | 35.25761 | 139.68908 | 10961 ft | 332 kts | 221° |
| 2026-05-07 04:15 | 35.24000 | 139.67057 | 11510 ft | 334 kts | 221° |
| 2026-05-07 04:15 | 35.22234 | 139.65208 | 12135 ft | 334 kts | 221° |
| 2026-05-07 04:15 | 35.20460 | 139.63355 | 12715 ft | 337 kts | 221° |
| 2026-05-07 04:15 | 35.18672 | 139.61490 | 13288 ft | 338 kts | 221° |
| 2026-05-07 04:16 | 35.16876 | 139.59618 | 13854 ft | 340 kts | 221° |
| 2026-05-07 04:16 | 35.15070 | 139.57737 | 14345 ft | 342 kts | 221° |
| 2026-05-07 04:16 | 35.13257 | 139.55849 | 14811 ft | 344 kts | 221° |
| 2026-05-07 04:16 | 35.11427 | 139.53947 | 15272 ft | 347 kts | 221° |
| 2026-05-07 04:17 | 35.09585 | 139.52033 | 15737 ft | 349 kts | 222° |
| 2026-05-07 04:17 | 35.07958 | 139.49838 | 16136 ft | 351 kts | 237° |
| 2026-05-07 04:17 | 35.06921 | 139.47137 | 16586 ft | 355 kts | 252° |
| 2026-05-07 04:17 | 35.06533 | 139.45193 | 16890 ft | 357 kts | 256° |
| 2026-05-07 04:18 | 35.05893 | 139.41191 | 17443 ft | 361 kts | 257° |
| 2026-05-07 04:18 | 35.05584 | 139.39192 | 17709 ft | 363 kts | 257° |
| 2026-05-07 04:18 | 35.05109 | 139.36157 | 18131 ft | 365 kts | 256° |
| 2026-05-07 04:18 | 35.04617 | 139.33109 | 18493 ft | 367 kts | 256° |
| 2026-05-07 04:19 | 35.04112 | 139.30048 | 18862 ft | 369 kts | 256° |
| 2026-05-07 04:19 | 35.03598 | 139.26971 | 19219 ft | 370 kts | 256° |
| 2026-05-07 04:19 | 35.03082 | 139.23892 | 19571 ft | 372 kts | 256° |
| 2026-05-07 04:19 | 35.02560 | 139.20792 | 19914 ft | 374 kts | 256° |
| 2026-05-07 04:20 | 35.02036 | 139.17676 | 20260 ft | 376 kts | 256° |
| 2026-05-07 04:20 | 35.01508 | 139.14545 | 20602 ft | 377 kts | 256° |
| 2026-05-07 04:20 | 35.00979 | 139.11404 | 20928 ft | 379 kts | 256° |
| 2026-05-07 04:21 | 34.99902 | 139.05030 | 21316 ft | 390 kts | 257° |
| 2026-05-07 04:21 | 34.99352 | 139.01782 | 21620 ft | 392 kts | 257° |
| 2026-05-07 04:21 | 34.98816 | 138.98529 | 22002 ft | 392 kts | 258° |
| 2026-05-07 04:21 | 34.98513 | 138.95209 | 22334 ft | 395 kts | 263° |
| 2026-05-07 04:22 | 34.98341 | 138.91862 | 22601 ft | 397 kts | 264° |
| 2026-05-07 04:22 | 34.98193 | 138.88487 | 22870 ft | 399 kts | 264° |
| 2026-05-07 04:22 | 34.98046 | 138.85102 | 23158 ft | 401 kts | 265° |
| 2026-05-07 04:22 | 34.97890 | 138.81702 | 23398 ft | 403 kts | 265° |
| 2026-05-07 04:23 | 34.97723 | 138.78281 | 23640 ft | 406 kts | 264° |
| 2026-05-07 04:23 | 34.97547 | 138.74838 | 23874 ft | 408 kts | 264° |
| 2026-05-07 04:23 | 34.97366 | 138.71380 | 24094 ft | 409 kts | 264° |
| 2026-05-07 04:23 | 34.97181 | 138.67915 | 24300 ft | 411 kts | 264° |
| 2026-05-07 04:24 | 34.96993 | 138.64427 | 24502 ft | 413 kts | 264° |
| 2026-05-07 04:24 | 34.96803 | 138.60924 | 24701 ft | 415 kts | 264° |
| 2026-05-07 04:24 | 34.96610 | 138.57401 | 24901 ft | 417 kts | 264° |
| 2026-05-07 04:24 | 34.96419 | 138.53910 | 25101 ft | 419 kts | 264° |
| 2026-05-07 04:25 | 34.96224 | 138.50364 | 25297 ft | 421 kts | 265° |
| 2026-05-07 04:25 | 34.96025 | 138.46779 | 25393 ft | 426 kts | 265° |
| 2026-05-07 04:25 | 34.95824 | 138.43171 | 25560 ft | 428 kts | 265° |
| 2026-05-07 04:25 | 34.95621 | 138.39543 | 25778 ft | 430 kts | 265° |
| 2026-05-07 04:26 | 34.95417 | 138.35903 | 25989 ft | 431 kts | 265° |
| 2026-05-07 04:26 | 34.95210 | 138.32248 | 26192 ft | 432 kts | 265° |
| 2026-05-07 04:26 | 34.95002 | 138.28588 | 26391 ft | 434 kts | 265° |
| 2026-05-07 04:26 | 34.94793 | 138.24912 | 26588 ft | 436 kts | 265° |
| 2026-05-07 04:27 | 34.94582 | 138.21228 | 26787 ft | 437 kts | 265° |
| 2026-05-07 04:27 | 34.94367 | 138.17520 | 26922 ft | 439 kts | 265° |
| 2026-05-07 04:27 | 34.94151 | 138.13793 | 27089 ft | 441 kts | 265° |
| 2026-05-07 04:27 | 34.93929 | 138.10010 | 27291 ft | 442 kts | 265° |
| 2026-05-07 04:28 | 34.93711 | 138.06315 | 27498 ft | 444 kts | 265° |
| 2026-05-07 04:28 | 34.93489 | 138.02559 | 27674 ft | 445 kts | 265° |
| 2026-05-07 04:28 | 34.93266 | 137.98793 | 27820 ft | 447 kts | 265° |
| 2026-05-07 04:28 | 34.93040 | 137.95006 | 27943 ft | 450 kts | 265° |
| 2026-05-07 04:29 | 34.92812 | 137.91197 | 28106 ft | 451 kts | 265° |
| 2026-05-07 04:29 | 34.92583 | 137.87383 | 28289 ft | 452 kts | 265° |
| 2026-05-07 04:29 | 34.92352 | 137.83559 | 28454 ft | 453 kts | 265° |
| 2026-05-07 04:29 | 34.92118 | 137.79723 | 28604 ft | 455 kts | 265° |
| 2026-05-07 04:30 | 34.91882 | 137.75874 | 28732 ft | 456 kts | 265° |
| 2026-05-07 04:30 | 34.91644 | 137.72012 | 28893 ft | 457 kts | 265° |
| 2026-05-07 04:30 | 34.91314 | 137.68163 | 29106 ft | 456 kts | 259° |
| 2026-05-07 04:30 | 34.90549 | 137.64427 | 29344 ft | 455 kts | 250° |
| 2026-05-07 04:31 | 34.89443 | 137.60827 | 29601 ft | 454 kts | 249° |
| 2026-05-07 04:31 | 34.88310 | 137.57242 | 29797 ft | 454 kts | 249° |
| 2026-05-07 04:31 | 34.87194 | 137.53636 | 29973 ft | 455 kts | 249° |
| 2026-05-07 04:31 | 34.86101 | 137.50024 | 30170 ft | 455 kts | 249° |
| 2026-05-07 04:32 | 34.85021 | 137.46412 | 30406 ft | 453 kts | 250° |
| 2026-05-07 04:32 | 34.83974 | 137.42800 | 30654 ft | 451 kts | 250° |
| 2026-05-07 04:32 | 34.82949 | 137.39200 | 30873 ft | 451 kts | 250° |
| 2026-05-07 04:32 | 34.81927 | 137.35593 | 31052 ft | 451 kts | 250° |
| 2026-05-07 04:33 | 34.80900 | 137.31982 | 31193 ft | 452 kts | 250° |
| 2026-05-07 04:33 | 34.79871 | 137.28379 | 31404 ft | 451 kts | 250° |
| 2026-05-07 04:33 | 34.78841 | 137.24784 | 31663 ft | 449 kts | 250° |
| 2026-05-07 04:33 | 34.77815 | 137.21218 | 31903 ft | 447 kts | 250° |
| 2026-05-07 04:34 | 34.76786 | 137.17648 | 32113 ft | 447 kts | 250° |
| 2026-05-07 04:34 | 34.75758 | 137.14084 | 32299 ft | 446 kts | 250° |
| 2026-05-07 04:34 | 34.74736 | 137.10543 | 32675 ft | 441 kts | 250° |
| 2026-05-07 04:34 | 34.73724 | 137.07042 | 33075 ft | 436 kts | 250° |
| 2026-05-07 04:35 | 34.72718 | 137.03568 | 33285 ft | 436 kts | 250° |
| 2026-05-07 04:35 | 34.71671 | 137.00106 | 33407 ft | 437 kts | 245° |
| 2026-05-07 04:35 | 34.70188 | 136.96881 | 33482 ft | 439 kts | 234° |
| 2026-05-07 04:35 | 34.68278 | 136.93986 | 33633 ft | 439 kts | 227° |
| 2026-05-07 04:36 | 34.66024 | 136.91507 | 33860 ft | 438 kts | 218° |
| 2026-05-07 04:36 | 34.63624 | 136.89292 | 33962 ft | 428 kts | 218° |
| 2026-05-07 04:36 | 34.58880 | 136.85011 | 33986 ft | 426 kts | 218° |
| 2026-05-07 04:37 | 34.54103 | 136.80652 | 33995 ft | 433 kts | 218° |
| 2026-05-07 04:37 | 34.49293 | 136.76220 | 33984 ft | 436 kts | 218° |
| 2026-05-07 04:38 | 34.44459 | 136.71761 | 33990 ft | 438 kts | 218° |
| 2026-05-07 04:38 | 34.39597 | 136.67284 | 33995 ft | 439 kts | 218° |
| 2026-05-07 04:39 | 34.34728 | 136.62807 | 33988 ft | 440 kts | 218° |
| 2026-05-07 04:39 | 34.29851 | 136.58329 | 33991 ft | 440 kts | 218° |
| 2026-05-07 04:40 | 34.25019 | 136.53807 | 33990 ft | 439 kts | 219° |
| 2026-05-07 04:40 | 34.20240 | 136.49310 | 33998 ft | 438 kts | 219° |
| 2026-05-07 04:41 | 34.15427 | 136.44798 | 34000 ft | 438 kts | 218° |
| 2026-05-07 04:41 | 34.10609 | 136.40300 | 33998 ft | 438 kts | 218° |
| 2026-05-07 04:42 | 34.05393 | 136.36520 | 34001 ft | 438 kts | 208° |
| 2026-05-07 04:42 | 33.99962 | 136.33177 | 34003 ft | 438 kts | 208° |
| 2026-05-07 04:43 | 33.94533 | 136.29826 | 33997 ft | 438 kts | 208° |
| 2026-05-07 04:43 | 33.89133 | 136.26451 | 34001 ft | 437 kts | 209° |
| 2026-05-07 04:44 | 33.83748 | 136.23069 | 34003 ft | 436 kts | 209° |
| 2026-05-07 04:44 | 33.78369 | 136.19690 | 34001 ft | 436 kts | 209° |
| 2026-05-07 04:45 | 33.73005 | 136.16326 | 34001 ft | 434 kts | 209° |
| 2026-05-07 04:45 | 33.67653 | 136.12975 | 34004 ft | 433 kts | 209° |
| 2026-05-07 04:46 | 33.62321 | 136.09641 | 34002 ft | 431 kts | 209° |
| 2026-05-07 04:46 | 33.57004 | 136.06322 | 34001 ft | 430 kts | 209° |
| 2026-05-07 04:47 | 33.51691 | 136.03009 | 34003 ft | 430 kts | 209° |
| 2026-05-07 04:47 | 33.46396 | 135.99713 | 34000 ft | 429 kts | 209° |
| 2026-05-07 04:48 | 33.41104 | 135.96423 | 33991 ft | 428 kts | 209° |
| 2026-05-07 04:48 | 33.35814 | 135.93138 | 33996 ft | 429 kts | 209° |
| 2026-05-07 04:49 | 33.30493 | 135.89839 | 34008 ft | 432 kts | 209° |
| 2026-05-07 04:49 | 33.25146 | 135.86528 | 34004 ft | 434 kts | 209° |
| 2026-05-07 04:50 | 33.19804 | 135.83226 | 33989 ft | 429 kts | 209° |
| 2026-05-07 04:50 | 33.14565 | 135.79992 | 33992 ft | 422 kts | 209° |
| 2026-05-07 04:51 | 33.09377 | 135.76793 | 34000 ft | 424 kts | 209° |
| 2026-05-07 04:51 | 33.04073 | 135.73524 | 34002 ft | 435 kts | 209° |
| 2026-05-07 04:52 | 32.98677 | 135.70206 | 33986 ft | 435 kts | 209° |
| 2026-05-07 04:52 | 32.93311 | 135.66913 | 33997 ft | 433 kts | 209° |
| 2026-05-07 04:53 | 32.87978 | 135.63643 | 33993 ft | 430 kts | 209° |
| 2026-05-07 04:53 | 32.82676 | 135.60396 | 33993 ft | 428 kts | 208° |
| 2026-05-07 04:54 | 32.77399 | 135.57168 | 33986 ft | 426 kts | 209° |
| 2026-05-07 04:54 | 32.72043 | 135.53896 | 33999 ft | 433 kts | 209° |
| 2026-05-07 04:55 | 32.66696 | 135.50634 | 33993 ft | 435 kts | 208° |
| 2026-05-07 04:55 | 32.61317 | 135.47359 | 33986 ft | 434 kts | 208° |
| 2026-05-07 04:56 | 32.55955 | 135.44098 | 33983 ft | 432 kts | 208° |
| 2026-05-07 04:56 | 32.50612 | 135.40852 | 33987 ft | 431 kts | 208° |
| 2026-05-07 04:57 | 32.45281 | 135.37618 | 33970 ft | 431 kts | 209° |
| 2026-05-07 04:57 | 32.39908 | 135.34361 | 33988 ft | 437 kts | 208° |
| 2026-05-07 04:58 | 32.34475 | 135.31074 | 33991 ft | 440 kts | 208° |
| 2026-05-07 04:58 | 32.29016 | 135.27776 | 33987 ft | 441 kts | 208° |
| 2026-05-07 04:59 | 32.23546 | 135.24475 | 33985 ft | 442 kts | 208° |
| 2026-05-07 04:59 | 32.18073 | 135.21176 | 33983 ft | 441 kts | 208° |
| 2026-05-07 05:00 | 32.12647 | 135.17901 | 33973 ft | 432 kts | 211° |
| 2026-05-07 05:00 | 32.07923 | 135.13657 | 33984 ft | 427 kts | 226° |
| 2026-05-07 05:01 | 32.04179 | 135.08214 | 33991 ft | 429 kts | 233° |
| 2026-05-07 05:01 | 32.00573 | 135.02607 | 33985 ft | 430 kts | 233° |
| 2026-05-07 05:02 | 31.96928 | 134.96983 | 33960 ft | 435 kts | 234° |
| 2026-05-07 05:02 | 31.93233 | 134.91320 | 33994 ft | 443 kts | 234° |
| 2026-05-07 05:03 | 31.90063 | 134.86482 | 33994 ft | 449 kts | 234° |
| 2026-05-07 05:03 | 31.85606 | 134.79695 | 33978 ft | 452 kts | 234° |
| 2026-05-07 05:04 | 31.82387 | 134.74803 | 33972 ft | 452 kts | 234° |
| 2026-05-07 05:04 | 31.78541 | 134.68964 | 33976 ft | 451 kts | 234° |
| 2026-05-07 05:05 | 31.74697 | 134.63136 | 33978 ft | 450 kts | 234° |
| 2026-05-07 05:05 | 31.70865 | 134.57334 | 33971 ft | 449 kts | 234° |
| 2026-05-07 05:06 | 31.67035 | 134.51544 | 33965 ft | 448 kts | 234° |
| 2026-05-07 05:06 | 31.63235 | 134.45808 | 33983 ft | 448 kts | 234° |
| 2026-05-07 05:07 | 31.59388 | 134.40008 | 33972 ft | 448 kts | 234° |
| 2026-05-07 05:07 | 31.55585 | 134.34284 | 33969 ft | 448 kts | 234° |
| 2026-05-07 05:08 | 31.51756 | 134.28530 | 33975 ft | 448 kts | 234° |
| 2026-05-07 05:08 | 31.47920 | 134.22775 | 33975 ft | 448 kts | 234° |
| 2026-05-07 05:09 | 31.44054 | 134.16982 | 33966 ft | 448 kts | 234° |
| 2026-05-07 05:09 | 31.40238 | 134.11272 | 33978 ft | 448 kts | 234° |
| 2026-05-07 05:10 | 31.36391 | 134.05526 | 33974 ft | 448 kts | 234° |
| 2026-05-07 05:10 | 31.32545 | 133.99789 | 33974 ft | 448 kts | 234° |
| 2026-05-07 05:11 | 31.28701 | 133.94064 | 33970 ft | 447 kts | 234° |
| 2026-05-07 05:11 | 31.24861 | 133.88352 | 33969 ft | 446 kts | 234° |
| 2026-05-07 05:12 | 31.21028 | 133.82659 | 33965 ft | 445 kts | 234° |
| 2026-05-07 05:12 | 31.17202 | 133.76985 | 33966 ft | 444 kts | 234° |
| 2026-05-07 05:13 | 31.13385 | 133.71333 | 33964 ft | 442 kts | 234° |
| 2026-05-07 05:13 | 31.09581 | 133.65707 | 33967 ft | 441 kts | 234° |
| 2026-05-07 05:14 | 31.05784 | 133.60098 | 33972 ft | 439 kts | 234° |
| 2026-05-07 05:14 | 31.01993 | 133.54509 | 33960 ft | 438 kts | 234° |
| 2026-05-07 05:15 | 30.98216 | 133.48951 | 33962 ft | 437 kts | 234° |
| 2026-05-07 05:15 | 30.94446 | 133.43406 | 33964 ft | 436 kts | 234° |
| 2026-05-07 05:16 | 30.90676 | 133.37867 | 33957 ft | 436 kts | 234° |
| 2026-05-07 05:16 | 30.86910 | 133.32343 | 33963 ft | 435 kts | 234° |
| 2026-05-07 05:17 | 30.83152 | 133.26838 | 33950 ft | 434 kts | 234° |
| 2026-05-07 05:17 | 30.79401 | 133.21350 | 33963 ft | 433 kts | 234° |
| 2026-05-07 05:18 | 30.75655 | 133.15876 | 33966 ft | 433 kts | 234° |
| 2026-05-07 05:18 | 30.71905 | 133.10406 | 33961 ft | 433 kts | 234° |
| 2026-05-07 05:19 | 30.68153 | 133.04940 | 33958 ft | 433 kts | 234° |
| 2026-05-07 05:19 | 30.64393 | 132.99470 | 33967 ft | 433 kts | 234° |
| 2026-05-07 05:20 | 30.60628 | 132.93999 | 33962 ft | 434 kts | 233° |
| 2026-05-07 05:20 | 30.56857 | 132.88528 | 33962 ft | 434 kts | 233° |
| 2026-05-07 05:21 | 30.51189 | 132.80320 | 33962 ft | 435 kts | 233° |
| 2026-05-07 05:22 | 30.47426 | 132.74880 | 33961 ft | 435 kts | 233° |
| 2026-05-07 05:22 | 30.43636 | 132.69408 | 33950 ft | 435 kts | 233° |
| 2026-05-07 05:23 | 30.39845 | 132.63942 | 33958 ft | 435 kts | 233° |
| 2026-05-07 05:23 | 30.36052 | 132.58481 | 33966 ft | 435 kts | 233° |
| 2026-05-07 05:24 | 30.32257 | 132.53024 | 33954 ft | 435 kts | 233° |
| 2026-05-07 05:24 | 30.28461 | 132.47573 | 33956 ft | 435 kts | 233° |
| 2026-05-07 05:25 | 30.24664 | 132.42128 | 33959 ft | 434 kts | 233° |
| 2026-05-07 05:25 | 30.20873 | 132.36700 | 33968 ft | 434 kts | 233° |
| 2026-05-07 05:26 | 30.17079 | 132.31275 | 33951 ft | 433 kts | 234° |
| 2026-05-07 05:26 | 30.13293 | 132.25868 | 33961 ft | 433 kts | 234° |
| 2026-05-07 05:27 | 30.09508 | 132.20470 | 33959 ft | 432 kts | 234° |
| 2026-05-07 05:27 | 30.05726 | 132.15084 | 33970 ft | 432 kts | 234° |
| 2026-05-07 05:28 | 30.01945 | 132.09706 | 33957 ft | 431 kts | 234° |
| 2026-05-07 05:28 | 29.98169 | 132.04341 | 33965 ft | 430 kts | 234° |
| 2026-05-07 05:29 | 29.94419 | 131.99020 | 33961 ft | 430 kts | 234° |
| 2026-05-07 05:29 | 29.90646 | 131.93674 | 33962 ft | 430 kts | 234° |
| 2026-05-07 05:30 | 29.86873 | 131.88335 | 33962 ft | 429 kts | 234° |
| 2026-05-07 05:30 | 29.83107 | 131.83012 | 33968 ft | 429 kts | 234° |
| 2026-05-07 05:31 | 29.79304 | 131.77720 | 33967 ft | 429 kts | 233° |
| 2026-05-07 05:31 | 29.75436 | 131.72504 | 33961 ft | 428 kts | 233° |
| 2026-05-07 05:32 | 29.71565 | 131.67302 | 33969 ft | 427 kts | 233° |
| 2026-05-07 05:32 | 29.67709 | 131.62108 | 33966 ft | 427 kts | 233° |
| 2026-05-07 05:33 | 29.63860 | 131.56920 | 33964 ft | 426 kts | 233° |
| 2026-05-07 05:33 | 29.60015 | 131.51740 | 33967 ft | 425 kts | 233° |
| 2026-05-07 05:34 | 29.56175 | 131.46574 | 33971 ft | 425 kts | 233° |
| 2026-05-07 05:34 | 29.52360 | 131.41447 | 33968 ft | 425 kts | 233° |
| 2026-05-07 05:35 | 29.48524 | 131.36299 | 33964 ft | 424 kts | 233° |
| 2026-05-07 05:35 | 29.44690 | 131.31161 | 33968 ft | 424 kts | 233° |
| 2026-05-07 05:36 | 29.40859 | 131.26033 | 33970 ft | 423 kts | 233° |
| 2026-05-07 05:36 | 29.37027 | 131.20911 | 33966 ft | 423 kts | 233° |
| 2026-05-07 05:37 | 29.33192 | 131.15790 | 33955 ft | 423 kts | 233° |
| 2026-05-07 05:37 | 29.29360 | 131.10681 | 33972 ft | 423 kts | 233° |
| 2026-05-07 05:38 | 29.25524 | 131.05572 | 33968 ft | 423 kts | 233° |
| 2026-05-07 05:38 | 29.21686 | 131.00467 | 33968 ft | 423 kts | 233° |
| 2026-05-07 05:39 | 29.17851 | 130.95372 | 33971 ft | 423 kts | 233° |
| 2026-05-07 05:39 | 29.14008 | 130.90273 | 33970 ft | 423 kts | 233° |
| 2026-05-07 05:40 | 29.10167 | 130.85183 | 33973 ft | 423 kts | 233° |
| 2026-05-07 05:40 | 29.06318 | 130.80089 | 33964 ft | 423 kts | 233° |
| 2026-05-07 05:41 | 29.02468 | 130.75000 | 33957 ft | 423 kts | 233° |
| 2026-05-07 05:41 | 28.98609 | 130.69906 | 33966 ft | 424 kts | 233° |
| 2026-05-07 05:42 | 28.94752 | 130.64820 | 33968 ft | 424 kts | 233° |
| 2026-05-07 05:42 | 28.90883 | 130.59725 | 33967 ft | 425 kts | 233° |
| 2026-05-07 05:43 | 28.87010 | 130.54631 | 33964 ft | 425 kts | 233° |
| 2026-05-07 05:43 | 28.83131 | 130.49535 | 33971 ft | 425 kts | 233° |
| 2026-05-07 05:44 | 28.79273 | 130.44474 | 33970 ft | 426 kts | 233° |
| 2026-05-07 05:44 | 28.75386 | 130.39380 | 33971 ft | 426 kts | 233° |
| 2026-05-07 05:45 | 28.71488 | 130.34279 | 33961 ft | 426 kts | 233° |
| 2026-05-07 05:45 | 28.67588 | 130.29181 | 33969 ft | 427 kts | 233° |
| 2026-05-07 05:46 | 28.63689 | 130.24091 | 33972 ft | 427 kts | 233° |
| 2026-05-07 05:46 | 28.59783 | 130.18998 | 33969 ft | 427 kts | 233° |
| 2026-05-07 05:47 | 28.55881 | 130.13915 | 33968 ft | 426 kts | 233° |
| 2026-05-07 05:47 | 28.51980 | 130.08841 | 33967 ft | 426 kts | 233° |
| 2026-05-07 05:48 | 28.48081 | 130.03776 | 33967 ft | 425 kts | 233° |
| 2026-05-07 05:48 | 28.44186 | 129.98723 | 33968 ft | 425 kts | 233° |
| 2026-05-07 05:49 | 28.40291 | 129.93675 | 33969 ft | 424 kts | 233° |
| 2026-05-07 05:49 | 28.36396 | 129.88632 | 33967 ft | 424 kts | 233° |
| 2026-05-07 05:50 | 28.32506 | 129.83602 | 33964 ft | 424 kts | 233° |
| 2026-05-07 05:50 | 28.28637 | 129.78607 | 33967 ft | 424 kts | 233° |
| 2026-05-07 05:51 | 28.24749 | 129.73591 | 33958 ft | 423 kts | 233° |
| 2026-05-07 05:51 | 28.20858 | 129.68580 | 33976 ft | 423 kts | 233° |
| 2026-05-07 05:52 | 28.16961 | 129.63565 | 33969 ft | 424 kts | 233° |
| 2026-05-07 05:52 | 28.13697 | 129.59369 | 33968 ft | 424 kts | 233° |
| 2026-05-07 05:53 | 28.09820 | 129.54391 | 33961 ft | 424 kts | 233° |
| 2026-05-07 05:53 | 28.05916 | 129.49385 | 33969 ft | 424 kts | 233° |
| 2026-05-07 05:54 | 28.02006 | 129.44377 | 33973 ft | 424 kts | 233° |
| 2026-05-07 05:54 | 27.98095 | 129.39373 | 33972 ft | 425 kts | 233° |
| 2026-05-07 05:55 | 27.94176 | 129.34365 | 33965 ft | 425 kts | 232° |
| 2026-05-07 05:55 | 27.90256 | 129.29361 | 33974 ft | 425 kts | 233° |
| 2026-05-07 05:56 | 27.86333 | 129.24359 | 33973 ft | 425 kts | 233° |
| 2026-05-07 05:56 | 27.82404 | 129.19356 | 33972 ft | 425 kts | 233° |
| 2026-05-07 05:57 | 27.78478 | 129.14361 | 33959 ft | 426 kts | 232° |
| 2026-05-07 05:57 | 27.74545 | 129.09368 | 33980 ft | 425 kts | 232° |
| 2026-05-07 05:58 | 27.70606 | 129.04378 | 33975 ft | 426 kts | 232° |
| 2026-05-07 05:58 | 27.66664 | 128.99387 | 33978 ft | 426 kts | 232° |
| 2026-05-07 05:59 | 27.62724 | 128.94403 | 33977 ft | 426 kts | 232° |
| 2026-05-07 05:59 | 27.58782 | 128.89422 | 33974 ft | 426 kts | 232° |
| 2026-05-07 06:00 | 27.54862 | 128.84475 | 33967 ft | 426 kts | 232° |
| 2026-05-07 06:00 | 27.50919 | 128.79504 | 33960 ft | 422 kts | 233° |
| 2026-05-07 06:00 | 27.48979 | 128.77063 | 33762 ft | 415 kts | 233° |
| 2026-05-07 06:01 | 27.47072 | 128.74662 | 33443 ft | 407 kts | 232° |
| 2026-05-07 06:01 | 27.45192 | 128.72299 | 33058 ft | 403 kts | 232° |
| 2026-05-07 06:01 | 27.43374 | 128.69930 | 32653 ft | 397 kts | 237° |
| 2026-05-07 06:01 | 27.41877 | 128.67359 | 32320 ft | 389 kts | 243° |
| 2026-05-07 06:02 | 27.40520 | 128.64744 | 31921 ft | 386 kts | 243° |
| 2026-05-07 06:02 | 27.39169 | 128.62138 | 31531 ft | 384 kts | 243° |
| 2026-05-07 06:02 | 27.37828 | 128.59557 | 31146 ft | 381 kts | 243° |
| 2026-05-07 06:02 | 27.36489 | 128.56994 | 30775 ft | 379 kts | 242° |
| 2026-05-07 06:03 | 27.35152 | 128.54444 | 30393 ft | 377 kts | 242° |
| 2026-05-07 06:03 | 27.33821 | 128.51912 | 30007 ft | 375 kts | 242° |
| 2026-05-07 06:03 | 27.32493 | 128.49389 | 29556 ft | 373 kts | 242° |
| 2026-05-07 06:03 | 27.31176 | 128.46892 | 29128 ft | 370 kts | 242° |
| 2026-05-07 06:04 | 27.29867 | 128.44412 | 28736 ft | 367 kts | 242° |
| 2026-05-07 06:04 | 27.28569 | 128.41955 | 28341 ft | 364 kts | 242° |
| 2026-05-07 06:04 | 27.27282 | 128.39517 | 27945 ft | 361 kts | 242° |
| 2026-05-07 06:04 | 27.26005 | 128.37102 | 27566 ft | 358 kts | 242° |
| 2026-05-07 06:05 | 27.24734 | 128.34699 | 27197 ft | 356 kts | 242° |
| 2026-05-07 06:05 | 27.23476 | 128.32320 | 26814 ft | 354 kts | 241° |
| 2026-05-07 06:05 | 27.22222 | 128.29952 | 26441 ft | 351 kts | 241° |
| 2026-05-07 06:05 | 27.20976 | 128.27600 | 26067 ft | 349 kts | 241° |
| 2026-05-07 06:06 | 27.19736 | 128.25260 | 25699 ft | 348 kts | 241° |
| 2026-05-07 06:06 | 27.18504 | 128.22936 | 25332 ft | 346 kts | 241° |
| 2026-05-07 06:06 | 27.17276 | 128.20620 | 24960 ft | 344 kts | 241° |
| 2026-05-07 06:06 | 27.16052 | 128.18312 | 24603 ft | 343 kts | 240° |
| 2026-05-07 06:07 | 27.14834 | 128.16018 | 24234 ft | 342 kts | 240° |
| 2026-05-07 06:07 | 27.13616 | 128.13725 | 23871 ft | 341 kts | 240° |
| 2026-05-07 06:07 | 27.12399 | 128.11438 | 23484 ft | 341 kts | 240° |
| 2026-05-07 06:07 | 27.11188 | 128.09162 | 23190 ft | 336 kts | 240° |
| 2026-05-07 06:08 | 27.09992 | 128.06918 | 22832 ft | 334 kts | 240° |
| 2026-05-07 06:08 | 27.08812 | 128.04701 | 22498 ft | 331 kts | 240° |
| 2026-05-07 06:08 | 27.07631 | 128.02485 | 22137 ft | 329 kts | 240° |
| 2026-05-07 06:08 | 27.06462 | 128.00290 | 21791 ft | 327 kts | 240° |
| 2026-05-07 06:09 | 27.05297 | 127.98105 | 21444 ft | 325 kts | 240° |
| 2026-05-07 06:09 | 27.04137 | 127.95931 | 21089 ft | 324 kts | 240° |
| 2026-05-07 06:09 | 27.02978 | 127.93772 | 20749 ft | 323 kts | 238° |
| 2026-05-07 06:09 | 27.01449 | 127.91921 | 20357 ft | 327 kts | 217° |
| 2026-05-07 06:10 | 26.99427 | 127.90768 | 20046 ft | 329 kts | 201° |
| 2026-05-07 06:10 | 26.97151 | 127.90325 | 19686 ft | 336 kts | 185° |
| 2026-05-07 06:10 | 26.94818 | 127.90331 | 19338 ft | 337 kts | 182° |
| 2026-05-07 06:10 | 26.92473 | 127.90418 | 19001 ft | 337 kts | 182° |
| 2026-05-07 06:11 | 26.90134 | 127.90521 | 18635 ft | 337 kts | 181° |
| 2026-05-07 06:11 | 26.87790 | 127.90621 | 18304 ft | 337 kts | 181° |
| 2026-05-07 06:11 | 26.85443 | 127.90712 | 17877 ft | 337 kts | 182° |
| 2026-05-07 06:11 | 26.83106 | 127.90796 | 17524 ft | 336 kts | 181° |
| 2026-05-07 06:12 | 26.80774 | 127.90878 | 17172 ft | 334 kts | 181° |
| 2026-05-07 06:12 | 26.78451 | 127.90955 | 16818 ft | 333 kts | 181° |
| 2026-05-07 06:12 | 26.76144 | 127.91027 | 16477 ft | 332 kts | 181° |
| 2026-05-07 06:12 | 26.73841 | 127.91097 | 16137 ft | 330 kts | 181° |
| 2026-05-07 06:13 | 26.71547 | 127.91166 | 15788 ft | 329 kts | 181° |
| 2026-05-07 06:13 | 26.69266 | 127.91233 | 15449 ft | 328 kts | 181° |
| 2026-05-07 06:13 | 26.66981 | 127.91301 | 15111 ft | 327 kts | 181° |
| 2026-05-07 06:13 | 26.64709 | 127.91368 | 14775 ft | 327 kts | 181° |
| 2026-05-07 06:14 | 26.62437 | 127.91434 | 14433 ft | 326 kts | 181° |
| 2026-05-07 06:14 | 26.60169 | 127.91501 | 14084 ft | 327 kts | 181° |
| 2026-05-07 06:14 | 26.57900 | 127.91567 | 13722 ft | 326 kts | 181° |
| 2026-05-07 06:14 | 26.55632 | 127.91634 | 13349 ft | 325 kts | 181° |
| 2026-05-07 06:15 | 26.53372 | 127.91702 | 12980 ft | 324 kts | 181° |
| 2026-05-07 06:15 | 26.51130 | 127.91771 | 12668 ft | 321 kts | 181° |
| 2026-05-07 06:15 | 26.48899 | 127.91837 | 12312 ft | 320 kts | 181° |
| 2026-05-07 06:15 | 26.46674 | 127.91902 | 11980 ft | 319 kts | 181° |
| 2026-05-07 06:16 | 26.44496 | 127.91966 | 11653 ft | 317 kts | 181° |
| 2026-05-07 06:16 | 26.42299 | 127.92031 | 11318 ft | 315 kts | 181° |
| 2026-05-07 06:16 | 26.40121 | 127.92082 | 11075 ft | 308 kts | 185° |
| 2026-05-07 06:16 | 26.38082 | 127.91568 | 10731 ft | 300 kts | 206° |
| 2026-05-07 06:17 | 26.36191 | 127.90606 | 10384 ft | 298 kts | 207° |
| 2026-05-07 06:17 | 26.34310 | 127.89632 | 10019 ft | 299 kts | 207° |
| 2026-05-07 06:17 | 26.32444 | 127.88665 | 9936 ft | 289 kts | 207° |
| 2026-05-07 06:17 | 26.30657 | 127.87746 | 9894 ft | 277 kts | 208° |
| 2026-05-07 06:18 | 26.28934 | 127.86862 | 9828 ft | 268 kts | 208° |
| 2026-05-07 06:18 | 26.27262 | 127.86005 | 9605 ft | 263 kts | 208° |
| 2026-05-07 06:18 | 26.25598 | 127.85151 | 9267 ft | 264 kts | 208° |
| 2026-05-07 06:18 | 26.23925 | 127.84293 | 8935 ft | 264 kts | 208° |
| 2026-05-07 06:19 | 26.22255 | 127.83438 | 8626 ft | 264 kts | 208° |
| 2026-05-07 06:19 | 26.20585 | 127.82584 | 8310 ft | 264 kts | 208° |
| 2026-05-07 06:19 | 26.18918 | 127.81732 | 8016 ft | 264 kts | 208° |
| 2026-05-07 06:19 | 26.17255 | 127.80883 | 7769 ft | 261 kts | 208° |
| 2026-05-07 06:20 | 26.15642 | 127.80061 | 7616 ft | 251 kts | 208° |
| 2026-05-07 06:20 | 26.14066 | 127.79256 | 7272 ft | 248 kts | 208° |
| 2026-05-07 06:20 | 26.12496 | 127.78454 | 6837 ft | 249 kts | 208° |
| 2026-05-07 06:20 | 26.10912 | 127.77647 | 6396 ft | 251 kts | 208° |
| 2026-05-07 06:21 | 26.09321 | 127.76837 | 5967 ft | 251 kts | 207° |
| 2026-05-07 06:21 | 26.07738 | 127.76034 | 5615 ft | 249 kts | 207° |
| 2026-05-07 06:21 | 26.06242 | 127.75140 | 5397 ft | 237 kts | 223° |
| 2026-05-07 06:21 | 26.05317 | 127.73705 | 5070 ft | 229 kts | 249° |
| 2026-05-07 06:22 | 26.04957 | 127.71996 | 4669 ft | 228 kts | 266° |
| 2026-05-07 06:22 | 26.04842 | 127.68425 | 3724 ft | 235 kts | 268° |
| 2026-05-07 06:22 | 26.05045 | 127.66620 | 3169 ft | 241 kts | 295° |
| 2026-05-07 06:23 | 26.06204 | 127.65301 | 2653 ft | 246 kts | 335° |
| 2026-05-07 06:23 | 26.07883 | 127.64998 | 2149 ft | 245 kts | 359° |
| 2026-05-07 06:23 | 26.09570 | 127.64994 | 1632 ft | 239 kts | 357° |
| 2026-05-07 06:23 | 26.11150 | 127.64899 | 1391 ft | 217 kts | 356° |
| 2026-05-07 06:24 | 26.12604 | 127.64830 | 1128 ft | 202 kts | 357° |
| 2026-05-07 06:24 | 26.13973 | 127.64773 | 877 ft | 191 kts | 357° |
| 2026-05-07 06:24 | 26.15250 | 127.64719 | 675 ft | 175 kts | 356° |
| 2026-05-07 06:24 | 26.16427 | 127.64669 | 417 ft | 164 kts | 356° |
| 2026-05-07 06:25 | 26.17545 | 127.64676 | 229 ft | 156 kts | 355° |
| 2026-05-07 06:25 | 26.18615 | 127.64632 | 19 ft | 149 kts | 356° |
| 2026-05-07 06:25 | 26.19526 | 127.64587 | 14 ft | 111 kts | 358° |
| 2026-05-07 06:25 | 26.20176 | 127.64558 | 16 ft | 58 kts | 358° |
| 2026-05-07 06:26 | 26.20341 | 127.64572 | 17 ft | 8 kts | 47° |
| 2026-05-07 06:26 | 26.20347 | 127.64631 | 16 ft | 8 kts | 91° |
| 2026-05-07 06:26 | 26.20346 | 127.64689 | 15 ft | 7 kts | 89° |
| 2026-05-07 06:26 | 26.20361 | 127.64742 | 17 ft | 7 kts | 49° |
| 2026-05-07 06:27 | 26.20407 | 127.64756 | 17 ft | 7 kts | 356° |
| 2026-05-07 06:27 | 26.20455 | 127.64752 | 17 ft | 7 kts | 358° |
| 2026-05-07 06:27 | 26.20502 | 127.64751 | 17 ft | 7 kts | 358° |
| 2026-05-07 06:27 | 26.20548 | 127.64749 | 16 ft | 7 kts | 358° |
| 2026-05-07 06:28 | 26.20622 | 127.64746 | 16 ft | 14 kts | 358° |
| 2026-05-07 06:28 | 26.20720 | 127.64741 | 16 ft | 14 kts | 357° |
| 2026-05-07 06:28 | 26.20815 | 127.64736 | 16 ft | 13 kts | 357° |
| 2026-05-07 06:28 | 26.20899 | 127.64760 | 17 ft | 13 kts | 49° |
| 2026-05-07 06:29 | 26.20921 | 127.64853 | 19 ft | 12 kts | 86° |
| 2026-05-07 06:29 | 26.20884 | 127.64891 | 20 ft | 8 kts | 163° |
| 2026-05-07 06:29 | 26.20843 | 127.64911 | 20 ft | 4 kts | 157° |
| 2026-05-07 06:29 | 26.20842 | 127.64911 | 20 ft | 0 kts | 157° |